Bailey, North Carolina
Current Conditions -  °F | °C
As of 12:53 AM on Thursday 23 Oct 2014 (Local Time) from KRWI Reporting Station
Clear Clear  
Wind Chill: 52°   Ceiling: Unl
Heat Index: 52°   Visibility: 10mi
Dew Point: 45°   Wind: 5mph
Humidity: 77%   Direction: 290°WNW
Pressure: 30"   Gusts: NA
Location:  35.78°N, 78.12°W
Report Text: KRWI 230453Z AUTO 29004KT 10SM CLR 11/07 A3000 RMK AO2 SLP158 T01110072 401830100
Loading
Personal Weather Stations






























Interactive Weather Map
Tropical Storm Tracking
New forecast layout! Learn more

10-Day Weather Forecast

Advertisements
Track Severe Weather on mobile